createdAt,value
2022-11-14T00:02:40.907Z,3.35
2022-11-14T00:05:45.513Z,3.26
2022-11-14T00:08:49.861Z,3.26
2022-11-14T00:11:51.614Z,3.19
2022-11-14T00:14:56.060Z,3.12
2022-11-14T00:17:57.603Z,3.20
2022-11-14T00:20:59.181Z,3.21
2022-11-14T00:24:02.084Z,3.19
2022-11-14T00:27:03.611Z,3.18
2022-11-14T00:30:05.570Z,3.17
2022-11-14T00:33:07.173Z,3.13
2022-11-14T00:36:09.014Z,3.14
2022-11-14T00:39:14.023Z,3.13
2022-11-14T00:42:15.577Z,3.13
2022-11-14T00:45:17.266Z,3.13
2022-11-14T00:48:18.807Z,3.10
2022-11-14T00:51:20.370Z,3.09
2022-11-14T00:54:23.346Z,3.07
2022-11-14T00:57:24.853Z,3.11
2022-11-14T01:00:26.360Z,3.12
2022-11-14T01:03:27.900Z,3.14
2022-11-14T01:06:29.336Z,3.19
2022-11-14T01:09:32.369Z,3.20
2022-11-14T01:12:34.115Z,3.21
2022-11-14T01:15:38.785Z,3.19
2022-11-14T01:18:40.439Z,3.19
2022-11-14T01:21:41.926Z,3.16
2022-11-14T01:24:45.282Z,3.16
2022-11-14T01:27:46.860Z,3.11
2022-11-14T01:30:48.383Z,3.09
2022-11-14T01:33:51.118Z,3.08
2022-11-14T01:36:52.757Z,3.09
2022-11-14T01:39:55.701Z,3.12
2022-11-14T01:43:12.096Z,3.16
2022-11-14T01:46:15.530Z,3.21
2022-11-14T01:49:19.398Z,3.23
2022-11-14T01:52:23.401Z,3.19
2022-11-14T01:55:27.644Z,3.15
2022-11-14T01:58:30.613Z,3.15
2022-11-14T02:01:34.270Z,3.11
2022-11-14T02:04:39.759Z,3.03
2022-11-14T02:07:41.671Z,2.97
2022-11-14T02:10:44.571Z,2.95
2022-11-14T02:13:46.143Z,2.95
2022-11-14T02:17:07.225Z,3.05
2022-11-14T02:20:20.674Z,3.07
2022-11-14T02:23:26.394Z,3.05
2022-11-14T02:26:28.016Z,3.00
2022-11-14T02:29:31.639Z,2.99
2022-11-14T02:32:57.095Z,2.96
2022-11-14T02:35:56.288Z,2.99
2022-11-14T02:38:57.748Z,2.96
2022-11-14T02:41:59.227Z,2.98
2022-11-14T02:45:00.793Z,3.05
2022-11-14T02:48:02.312Z,2.91
2022-11-14T02:51:05.406Z,2.85
2022-11-14T02:54:06.973Z,2.90
2022-11-14T02:57:08.584Z,2.88
2022-11-14T03:00:14.963Z,2.86
2022-11-14T03:03:17.022Z,2.86
2022-11-14T03:06:19.966Z,2.77
2022-11-14T03:09:21.728Z,2.73
2022-11-14T03:12:23.300Z,2.79
2022-11-14T03:15:25.010Z,2.84
2022-11-14T03:18:26.738Z,2.91
2022-11-14T03:21:29.920Z,2.92
2022-11-14T03:24:31.540Z,2.95
2022-11-14T03:27:33.247Z,2.99
2022-11-14T03:30:34.781Z,3.03
2022-11-14T03:33:36.752Z,3.07
2022-11-14T03:36:39.650Z,3.11
2022-11-14T03:39:41.116Z,3.13
2022-11-14T03:42:42.608Z,3.13
2022-11-14T03:45:44.343Z,3.10
2022-11-14T03:48:45.930Z,3.11
2022-11-14T03:51:48.806Z,3.16
2022-11-14T03:54:50.993Z,3.11
2022-11-14T03:57:52.681Z,3.14
2022-11-14T04:00:56.133Z,3.14
2022-11-14T04:03:57.763Z,3.15
2022-11-14T04:07:00.829Z,3.14
2022-11-14T04:10:02.443Z,3.10
2022-11-14T04:13:04.629Z,3.07
2022-11-14T04:16:09.127Z,3.00
2022-11-14T04:19:10.753Z,2.99
2022-11-14T04:22:13.604Z,3.04
2022-11-14T04:25:15.155Z,3.03
2022-11-14T04:28:16.644Z,3.04
2022-11-14T04:31:18.236Z,3.11
2022-11-14T04:34:19.699Z,3.10
2022-11-14T04:37:22.665Z,3.11
2022-11-14T04:40:24.187Z,3.08
2022-11-14T04:43:25.811Z,3.07
2022-11-14T04:46:27.333Z,3.07
2022-11-14T04:49:28.874Z,3.09
2022-11-14T04:52:31.751Z,3.05
2022-11-14T04:55:33.485Z,3.03
2022-11-14T04:58:35.051Z,3.02
2022-11-14T05:01:36.566Z,3.01
2022-11-14T05:04:38.126Z,3.03
2022-11-14T05:07:41.632Z,3.04
2022-11-14T05:10:44.763Z,3.09
2022-11-14T05:13:46.325Z,3.09
2022-11-14T05:16:47.910Z,3.09
2022-11-14T05:19:49.439Z,3.11
2022-11-14T05:22:54.896Z,3.11
2022-11-14T05:26:00.459Z,3.11
2022-11-14T05:29:01.954Z,3.11
2022-11-14T05:32:03.687Z,3.03
2022-11-14T05:35:06.007Z,3.05
2022-11-14T05:38:08.914Z,3.03
2022-11-14T05:41:12.238Z,3.05
2022-11-14T05:44:13.980Z,3.10
2022-11-14T05:47:15.618Z,3.11
2022-11-14T05:50:17.154Z,3.11
2022-11-14T05:53:19.978Z,3.12
2022-11-14T05:56:21.442Z,3.14
2022-11-14T05:59:23.120Z,3.17
2022-11-14T06:02:24.659Z,3.17
2022-11-14T06:05:26.335Z,3.17
2022-11-14T06:08:30.187Z,3.17
2022-11-14T06:11:31.874Z,3.19
2022-11-14T06:14:33.485Z,3.15
2022-11-14T06:17:34.908Z,3.16
2022-11-14T06:20:36.596Z,3.20
2022-11-14T06:23:39.804Z,3.23
2022-11-14T06:26:41.359Z,3.19
2022-11-14T06:29:43.046Z,3.17
2022-11-14T06:32:44.677Z,3.19
2022-11-14T06:35:46.216Z,3.18
2022-11-14T06:38:49.326Z,3.22
2022-11-14T06:41:50.784Z,3.21
2022-11-14T06:44:52.425Z,3.20
2022-11-14T06:47:57.991Z,3.19
2022-11-14T06:51:00.381Z,3.20
2022-11-14T06:54:03.584Z,3.12
2022-11-14T06:57:05.232Z,3.04
2022-11-14T07:00:07.620Z,3.03
2022-11-14T07:03:09.244Z,2.98
2022-11-14T07:06:11.807Z,3.02
2022-11-14T07:09:14.723Z,3.09
2022-11-14T07:12:16.123Z,3.11
2022-11-14T07:15:18.051Z,3.15
2022-11-14T07:18:19.813Z,3.18
2022-11-14T07:21:21.441Z,3.26
2022-11-14T07:24:24.462Z,3.31
2022-11-14T07:27:26.085Z,3.32
2022-11-14T07:30:28.880Z,3.34
2022-11-14T07:33:30.783Z,3.40
2022-11-14T07:36:32.253Z,3.43
2022-11-14T07:39:35.540Z,3.50
2022-11-14T07:42:36.973Z,3.59
2022-11-14T07:45:38.600Z,3.71
2022-11-14T07:48:40.454Z,3.81
2022-11-14T07:51:41.970Z,3.87
2022-11-14T07:54:45.039Z,3.96
2022-11-14T07:57:49.451Z,4.06
2022-11-14T08:00:51.451Z,4.15
2022-11-14T08:03:52.987Z,4.22
2022-11-14T08:06:54.504Z,4.27
2022-11-14T08:09:57.556Z,4.34
2022-11-14T08:13:17.510Z,4.47
2022-11-14T08:16:21.610Z,4.56
2022-11-14T08:19:23.291Z,4.65
2022-11-14T08:22:24.760Z,4.75
2022-11-14T08:25:27.820Z,4.80
2022-11-14T08:28:29.649Z,4.90
2022-11-14T08:31:31.472Z,5.04
2022-11-14T08:34:33.037Z,5.01
2022-11-14T08:37:34.690Z,5.09
2022-11-14T08:40:37.643Z,5.15
2022-11-14T08:43:39.159Z,5.25
2022-11-14T08:46:41.014Z,5.29
2022-11-14T08:49:42.645Z,5.39
2022-11-14T08:52:48.862Z,5.49
2022-11-14T08:55:51.708Z,5.59
2022-11-14T08:58:53.339Z,5.62
2022-11-14T09:01:55.035Z,5.71
2022-11-14T09:04:56.559Z,5.79
2022-11-14T09:07:58.889Z,5.89
2022-11-14T09:11:05.332Z,5.97
2022-11-14T09:14:08.007Z,6.03
2022-11-14T09:17:09.773Z,6.15
2022-11-14T09:20:11.283Z,6.27
2022-11-14T09:23:12.895Z,6.36
2022-11-14T09:26:15.749Z,6.33
2022-11-14T09:29:18.975Z,6.45
2022-11-14T09:32:20.577Z,6.61
2022-11-14T09:35:22.064Z,6.75
2022-11-14T09:38:23.641Z,6.82
2022-11-14T09:41:38.585Z,6.86
2022-11-14T09:44:47.689Z,6.93
2022-11-14T09:47:50.851Z,7.11
2022-11-14T09:50:58.919Z,7.20
2022-11-14T09:54:06.412Z,7.37
2022-11-14T09:57:14.558Z,7.47
2022-11-14T10:00:17.517Z,7.55
2022-11-14T10:03:24.895Z,7.66
2022-11-14T10:06:30.396Z,7.77
2022-11-14T10:09:43.896Z,7.86
2022-11-14T10:12:58.224Z,7.71
2022-11-14T10:16:04.766Z,7.73
2022-11-14T10:19:18.766Z,7.81
2022-11-14T10:22:27.362Z,7.84
2022-11-14T10:25:38.238Z,7.89
2022-11-14T10:28:48.857Z,7.98
2022-11-14T10:31:55.264Z,8.02
2022-11-14T10:35:01.424Z,8.11
2022-11-14T10:38:07.822Z,8.20
2022-11-14T10:41:19.231Z,8.39
2022-11-14T10:44:36.797Z,8.31
2022-11-14T10:47:40.259Z,8.32
2022-11-14T10:50:46.307Z,8.31
2022-11-14T10:53:52.003Z,8.38
2022-11-14T10:56:55.819Z,8.40
2022-11-14T10:59:58.833Z,8.53
2022-11-14T11:03:00.528Z,8.48
2022-11-14T11:06:03.121Z,8.56
2022-11-14T11:09:26.596Z,8.48
2022-11-14T11:12:40.767Z,8.46
2022-11-14T11:15:45.258Z,8.58
2022-11-14T11:18:50.666Z,8.58
2022-11-14T11:21:55.235Z,8.67
2022-11-14T11:24:56.789Z,8.68
2022-11-14T11:28:05.241Z,8.74
2022-11-14T11:31:10.861Z,8.80
2022-11-14T11:34:14.891Z,8.65
2022-11-14T11:37:19.260Z,8.81
2022-11-14T11:40:22.550Z,8.79
2022-11-14T11:43:43.128Z,8.91
2022-11-14T11:46:51.176Z,9.00
2022-11-14T11:49:54.537Z,9.05
2022-11-14T11:53:05.874Z,9.15
2022-11-14T11:56:09.796Z,9.17
2022-11-14T11:59:28.121Z,9.19
2022-11-14T12:02:31.044Z,9.17
2022-11-14T12:05:41.111Z,9.15
2022-11-14T12:08:50.971Z,9.31
2022-11-14T12:11:55.095Z,9.21
2022-11-14T12:15:15.259Z,9.41
2022-11-14T12:18:29.404Z,9.36
2022-11-14T12:21:38.034Z,9.46
2022-11-14T12:24:54.355Z,9.46
2022-11-14T12:28:05.209Z,9.48
2022-11-14T12:31:11.474Z,9.54
2022-11-14T12:34:35.738Z,9.59
2022-11-14T12:37:54.239Z,9.50
2022-11-14T12:40:58.432Z,9.62
2022-11-14T12:44:21.529Z,9.55
2022-11-14T12:47:23.754Z,9.64
2022-11-14T12:50:38.732Z,9.70
2022-11-14T12:53:42.151Z,9.73
2022-11-14T12:57:01.691Z,9.76
2022-11-14T13:00:04.474Z,9.69
2022-11-14T13:03:21.120Z,9.72
2022-11-14T13:06:26.992Z,9.64
2022-11-14T13:09:35.987Z,9.71
2022-11-14T13:12:56.140Z,9.65
2022-11-14T13:16:16.531Z,9.59
2022-11-14T13:19:39.679Z,9.56
2022-11-14T13:22:52.961Z,9.63
2022-11-14T13:26:09.285Z,9.61
2022-11-14T13:29:29.768Z,9.56
2022-11-14T13:33:01.644Z,9.53
2022-11-14T13:36:05.462Z,9.59
2022-11-14T13:39:23.472Z,9.61
2022-11-14T13:42:34.324Z,9.58
2022-11-14T13:45:49.077Z,9.55
2022-11-14T13:49:00.717Z,9.57
2022-11-14T13:52:02.471Z,9.54
2022-11-14T13:55:04.345Z,9.51
2022-11-14T13:58:12.894Z,9.50
2022-11-14T14:01:25.558Z,9.46
2022-11-14T14:04:36.367Z,9.41
2022-11-14T14:07:51.279Z,9.39
2022-11-14T14:10:59.602Z,9.36
2022-11-14T14:14:05.823Z,9.38
2022-11-14T14:17:09.777Z,9.31
2022-11-14T14:20:18.672Z,9.25
2022-11-14T14:23:27.225Z,9.22
2022-11-14T14:26:33.451Z,9.16
2022-11-14T14:29:42.765Z,9.05
2022-11-14T14:32:44.388Z,8.97
2022-11-14T14:35:53.211Z,8.90
2022-11-14T14:39:11.995Z,8.78
2022-11-14T14:42:13.935Z,8.73
2022-11-14T14:45:18.079Z,8.68
2022-11-14T14:48:22.858Z,8.55
2022-11-14T14:51:32.073Z,8.45
2022-11-14T14:54:34.280Z,8.48
2022-11-14T14:57:35.952Z,8.45
2022-11-14T15:00:39.022Z,8.30
2022-11-14T15:03:43.064Z,8.15
2022-11-14T15:06:46.400Z,8.03
2022-11-14T15:09:52.734Z,7.96
2022-11-14T15:12:54.815Z,7.84
2022-11-14T15:15:58.405Z,7.78
2022-11-14T15:19:00.780Z,7.71
2022-11-14T15:22:03.682Z,7.67
2022-11-14T15:25:06.374Z,7.59
2022-11-14T15:28:15.372Z,7.53
2022-11-14T15:31:21.161Z,7.46
2022-11-14T15:34:27.881Z,7.44
2022-11-14T15:37:29.439Z,7.39
2022-11-14T15:40:34.305Z,7.34
2022-11-14T15:43:50.589Z,7.31
2022-11-14T15:46:54.068Z,7.31
2022-11-14T15:50:00.290Z,7.23
2022-11-14T15:53:04.012Z,7.18
2022-11-14T15:56:05.614Z,7.11
2022-11-14T15:59:07.283Z,7.10
2022-11-14T16:02:13.909Z,7.08
2022-11-14T16:05:16.160Z,7.05
2022-11-14T16:08:18.685Z,7.00
2022-11-14T16:11:20.126Z,6.94
2022-11-14T16:14:21.583Z,6.94
2022-11-14T16:17:24.449Z,6.93
2022-11-14T16:20:29.296Z,6.88
2022-11-14T16:23:30.957Z,6.87
2022-11-14T16:26:33.125Z,6.84
2022-11-14T16:29:34.750Z,6.79
2022-11-14T16:32:37.990Z,6.70
2022-11-14T16:35:39.686Z,6.62
2022-11-14T16:38:41.207Z,6.56
2022-11-14T16:41:42.991Z,6.52
2022-11-14T16:44:49.388Z,6.52
2022-11-14T16:47:54.043Z,6.52
2022-11-14T16:50:56.958Z,6.55
2022-11-14T16:53:58.633Z,6.55
2022-11-14T16:57:00.282Z,6.51
2022-11-14T17:00:01.898Z,6.45
2022-11-14T17:03:04.890Z,6.45
2022-11-14T17:06:08.249Z,6.46
2022-11-14T17:09:12.147Z,6.46
2022-11-14T17:12:13.626Z,6.47
2022-11-14T17:15:15.300Z,6.51
2022-11-14T17:18:18.171Z,6.60
2022-11-14T17:21:19.955Z,6.68
2022-11-14T17:24:28.557Z,6.79
2022-11-14T17:27:32.816Z,6.86
2022-11-14T17:30:34.285Z,6.91
2022-11-14T17:33:37.705Z,6.93
2022-11-14T17:36:39.256Z,6.94
2022-11-14T17:39:40.873Z,6.98
2022-11-14T17:42:42.382Z,7.01
2022-11-14T17:45:53.404Z,7.01
2022-11-14T17:48:57.864Z,7.01
2022-11-14T17:51:59.379Z,7.01
2022-11-14T17:55:02.561Z,7.03
2022-11-14T17:58:04.031Z,7.06
2022-11-14T18:01:08.993Z,7.10
2022-11-14T18:04:11.863Z,7.10
2022-11-14T18:07:13.471Z,7.07
2022-11-14T18:10:15.187Z,7.03
2022-11-14T18:13:16.698Z,7.00
2022-11-14T18:16:19.031Z,6.94
2022-11-14T18:19:22.020Z,6.95
2022-11-14T18:22:23.504Z,6.92
2022-11-14T18:25:24.967Z,6.92
2022-11-14T18:28:26.963Z,6.94
2022-11-14T18:31:28.745Z,6.96
2022-11-14T18:34:31.746Z,6.94
2022-11-14T18:37:33.323Z,6.90
2022-11-14T18:40:35.174Z,6.86
2022-11-14T18:43:36.923Z,6.85
2022-11-14T18:46:40.638Z,6.89
2022-11-14T18:49:43.433Z,6.93
2022-11-14T18:52:44.934Z,6.98
2022-11-14T18:55:47.851Z,7.02
2022-11-14T18:58:52.502Z,7.08
2022-11-14T19:01:54.544Z,7.16
2022-11-14T19:04:57.378Z,7.20
2022-11-14T19:07:59.204Z,7.20
2022-11-14T19:11:01.649Z,7.22
2022-11-14T19:14:04.092Z,7.22
2022-11-14T19:17:07.134Z,7.25
2022-11-14T19:20:14.425Z,7.24
2022-11-14T19:23:19.068Z,7.24
2022-11-14T19:26:21.166Z,7.25
2022-11-14T19:29:22.742Z,7.28
2022-11-14T19:32:24.515Z,7.29
2022-11-14T19:35:27.401Z,7.28
2022-11-14T19:38:28.874Z,7.29
2022-11-14T19:41:32.645Z,7.31
2022-11-14T19:44:34.275Z,7.32
2022-11-14T19:47:35.701Z,7.33
2022-11-14T19:50:38.798Z,7.33
2022-11-14T19:53:40.942Z,7.36
2022-11-14T19:56:42.511Z,7.36
2022-11-14T19:59:43.988Z,7.39
2022-11-14T20:02:45.631Z,7.42
2022-11-14T20:05:48.437Z,7.45
2022-11-14T20:08:49.829Z,7.46
2022-11-14T20:11:51.326Z,7.46
2022-11-14T20:14:52.847Z,7.49
2022-11-14T20:17:54.310Z,7.52
2022-11-14T20:21:02.010Z,7.55
2022-11-14T20:24:03.849Z,7.55
2022-11-14T20:27:05.405Z,7.55
2022-11-14T20:30:07.913Z,7.50
2022-11-14T20:33:09.705Z,7.51
2022-11-14T20:36:14.232Z,7.56
2022-11-14T20:39:15.753Z,7.55
2022-11-14T20:42:20.172Z,7.59
2022-11-14T20:45:21.579Z,7.59
2022-11-14T20:48:23.525Z,7.57
2022-11-14T20:51:26.689Z,7.59
2022-11-14T20:54:28.128Z,7.65
2022-11-14T20:57:29.721Z,7.82
2022-11-14T21:00:31.235Z,7.92
2022-11-14T21:03:34.195Z,8.00
2022-11-14T21:06:37.471Z,8.08
2022-11-14T21:09:39.097Z,8.17
2022-11-14T21:12:43.419Z,8.25
2022-11-14T21:15:47.438Z,8.25
2022-11-14T21:18:51.828Z,8.25
2022-11-14T21:21:54.910Z,8.26
2022-11-14T21:24:56.475Z,8.31
2022-11-14T21:27:57.978Z,8.32
2022-11-14T21:31:00.885Z,8.31
2022-11-14T21:34:04.783Z,8.25
2022-11-14T21:37:07.654Z,8.20
2022-11-14T21:40:09.941Z,8.18
2022-11-14T21:43:11.409Z,8.15
2022-11-14T21:46:17.803Z,8.07
2022-11-14T21:49:19.317Z,8.04
2022-11-14T21:52:22.506Z,8.06
2022-11-14T21:55:23.998Z,8.05
2022-11-14T21:58:25.666Z,8.07
2022-11-14T22:01:45.973Z,8.01
2022-11-14T22:04:47.561Z,8.01
2022-11-14T22:07:53.214Z,7.99
2022-11-14T22:11:00.354Z,7.97
2022-11-14T22:14:01.937Z,7.97
2022-11-14T22:17:03.451Z,7.92
2022-11-14T22:20:05.352Z,7.91
2022-11-14T22:23:08.304Z,7.87
2022-11-14T22:26:10.640Z,7.85
2022-11-14T22:29:12.270Z,7.83
2022-11-14T22:32:13.973Z,7.90
2022-11-14T22:35:15.738Z,7.90
2022-11-14T22:38:19.093Z,7.90
2022-11-14T22:41:26.359Z,7.87
2022-11-14T22:44:30.533Z,7.87
2022-11-14T22:47:32.098Z,7.81
2022-11-14T22:50:33.649Z,7.81
2022-11-14T22:53:37.009Z,7.77
2022-11-14T22:56:38.521Z,7.73
2022-11-14T22:59:40.025Z,7.70
2022-11-14T23:02:41.541Z,7.72
2022-11-14T23:05:43.246Z,7.74
2022-11-14T23:08:46.521Z,7.78
2022-11-14T23:11:48.087Z,7.81
2022-11-14T23:14:49.568Z,7.81
2022-11-14T23:17:51.490Z,7.85
2022-11-14T23:20:53.264Z,7.94
2022-11-14T23:23:57.208Z,8.01
2022-11-14T23:26:58.870Z,8.14
2022-11-14T23:30:00.271Z,8.20
2022-11-14T23:33:01.744Z,8.26
2022-11-14T23:36:03.501Z,8.26
2022-11-14T23:39:06.335Z,8.33
2022-11-14T23:42:07.873Z,8.39
2022-11-14T23:45:09.462Z,8.45
2022-11-14T23:48:10.988Z,8.47
2022-11-14T23:51:14.490Z,8.47
2022-11-14T23:54:17.335Z,8.52
2022-11-14T23:57:18.792Z,8.56
